Time;durP1;ratioP1;P1;durP2;ratioP2;P2;SDS_P1;SDS_P2;PMS_P1;PMS_P2;Temp;Humidity;BMP_temperature;BMP_pressure;BME280_temperature;BME280_humidity;BME280_pressure;Samples;Min_cycle;Max_cycle;Signal;HPM_P1;HPM_P2
2023/10/06 00:00:26;;;;;;;8.83;4.50;;;9.80;1.00;;;;;;5030374;28;20760;-76
2023/10/06 00:02:52;;;;;;;7.17;4.53;;;9.70;1.00;;;;;;5030315;28;20665;-77
2023/10/06 00:05:19;;;;;;;6.70;5.03;;;9.60;1.00;;;;;;5030516;28;20405;-76
2023/10/06 00:07:45;;;;;;;7.03;4.17;;;9.60;1.00;;;;;;5030168;28;20413;-75
2023/10/06 00:10:17;;;;;;;9.87;4.47;;;9.60;1.00;;;;;;5030521;28;20413;-76
2023/10/06 00:12:47;;;;;;;6.80;4.50;;;9.70;1.00;;;;;;5030125;28;20573;-76
2023/10/06 00:15:26;;;;;;;7.73;4.20;;;9.60;1.00;;;;;;5030289;28;20488;-75
2023/10/06 00:17:55;;;;;;;7.83;4.53;;;9.60;1.00;;;;;;5028520;28;20456;-75
2023/10/06 00:20:31;;;;;;;9.30;4.63;;;9.60;1.00;;;;;;5030177;28;20556;-75
2023/10/06 00:23:02;;;;;;;10.00;4.90;;;9.60;1.00;;;;;;5045563;28;20420;-75
2023/10/06 00:25:28;;;;;;;9.80;5.00;;;9.50;1.00;;;;;;5029887;28;20396;-76
2023/10/06 00:27:53;;;;;;;9.53;4.50;;;9.50;1.00;;;;;;5029777;28;20439;-75
2023/10/06 00:30:20;;;;;;;10.20;5.17;;;9.40;1.00;;;;;;5030029;28;20220;-77
2023/10/06 00:32:46;;;;;;;9.90;4.90;;;9.50;1.00;;;;;;5029800;28;20244;-76
2023/10/06 00:35:14;;;;;;;8.17;4.70;;;9.40;1.00;;;;;;5029896;28;20411;-75
2023/10/06 00:37:40;;;;;;;7.90;4.80;;;9.40;1.00;;;;;;5026098;28;20479;-76
2023/10/06 00:40:11;;;;;;;7.73;4.70;;;9.40;1.00;;;;;;5023284;28;20408;-76
2023/10/06 00:42:38;;;;;;;8.83;4.57;;;9.30;1.00;;;;;;5029766;28;20432;-74
2023/10/06 00:45:07;;;;;;;9.83;4.77;;;9.30;1.00;;;;;;5029912;28;20421;-75
2023/10/06 00:47:38;;;;;;;8.00;4.97;;;9.20;1.00;;;;;;5029488;28;20412;-74
2023/10/06 00:50:12;;;;;;;10.70;4.93;;;9.20;1.00;;;;;;5029799;28;20444;-77
2023/10/06 00:52:39;;;;;;;6.20;4.27;;;9.10;1.00;;;;;;5029631;28;20505;-74
2023/10/06 00:55:11;;;;;;;8.03;4.20;;;9.10;1.00;;;;;;5029791;28;20412;-75
2023/10/06 00:57:37;;;;;;;8.10;4.30;;;9.00;1.00;;;;;;5029358;28;20409;-75
2023/10/06 01:00:19;;;;;;;7.77;4.33;;;9.00;1.00;;;;;;5029810;28;20411;-75
2023/10/06 01:02:45;;;;;;;11.87;5.00;;;8.90;1.00;;;;;;5029375;28;20432;-75
2023/10/06 01:05:10;;;;;;;11.30;4.17;;;8.90;1.00;;;;;;5029633;28;20412;-74
2023/10/06 01:07:36;;;;;;;5.70;3.93;;;8.80;1.00;;;;;;5029522;28;20268;-75
2023/10/06 01:10:14;;;;;;;10.17;4.40;;;8.80;1.00;;;;;;5029720;28;20227;-75
2023/10/06 01:12:40;;;;;;;6.03;4.10;;;8.80;1.00;;;;;;5029702;28;20186;-75
2023/10/06 01:15:16;;;;;;;7.47;4.63;;;8.80;1.00;;;;;;5029631;28;20408;-76
2023/10/06 01:17:43;;;;;;;10.17;4.20;;;8.80;1.00;;;;;;5031459;28;20197;-75
2023/10/06 01:20:10;;;;;;;10.60;3.97;;;8.80;1.00;;;;;;5033477;28;20418;-75
2023/10/06 01:22:42;;;;;;;6.93;4.10;;;8.80;1.00;;;;;;5033105;28;20435;-76
2023/10/06 01:25:13;;;;;;;7.30;4.27;;;8.80;1.00;;;;;;5033322;28;20977;-79
2023/10/06 01:27:39;;;;;;;6.67;4.20;;;8.80;1.00;;;;;;5032872;28;20810;-76
2023/10/06 01:30:18;;;;;;;9.13;4.70;;;8.80;1.00;;;;;;5033224;28;20436;-76
2023/10/06 01:32:45;;;;;;;11.50;4.20;;;8.80;1.00;;;;;;5032981;28;20562;-74
2023/10/06 01:35:12;;;;;;;8.53;4.10;;;8.90;1.00;;;;;;5032575;28;20415;-75
2023/10/06 01:37:45;;;;;;;5.87;3.97;;;8.90;1.00;;;;;;5032770;28;20496;-74
2023/10/06 01:42:55;;;;;;;11.80;4.30;;;8.70;1.00;;;;;;5032993;28;20432;-75
2023/10/06 01:45:21;;;;;;;8.83;4.27;;;8.70;1.00;;;;;;5033173;28;20413;-75
2023/10/06 01:47:57;;;;;;;7.70;4.00;;;8.70;1.00;;;;;;5032535;28;20428;-76
2023/10/06 01:50:27;;;;;;;5.80;3.67;;;8.70;1.00;;;;;;5032971;28;20409;-75
2023/10/06 01:52:56;;;;;;;6.90;4.10;;;8.80;1.00;;;;;;5047731;28;20483;-74
2023/10/06 01:55:24;;;;;;;7.27;4.03;;;8.90;1.00;;;;;;5032920;28;20442;-76
2023/10/06 01:57:50;;;;;;;6.10;3.83;;;8.90;1.00;;;;;;5032344;28;20516;-76
2023/10/06 02:00:22;;;;;;;6.27;4.10;;;8.90;1.00;;;;;;5032640;28;20923;-76
2023/10/06 02:02:50;;;;;;;6.57;3.97;;;8.90;1.00;;;;;;5031870;28;20460;-75
2023/10/06 02:05:16;;;;;;;7.73;4.10;;;8.90;1.00;;;;;;5032351;28;20400;-75
2023/10/06 02:07:44;;;;;;;5.83;4.10;;;7.80;1.00;;;;;;5032373;28;20480;-75
2023/10/06 02:10:13;;;;;;;6.60;4.03;;;8.90;1.00;;;;;;5032577;28;20584;-75
2023/10/06 02:12:39;;;;;;;5.03;3.70;;;8.90;1.00;;;;;;5032445;28;20461;-73
2023/10/06 02:15:14;;;;;;;6.43;4.30;;;8.90;1.00;;;;;;5032226;28;20952;-75
2023/10/06 02:17:40;;;;;;;6.77;4.50;;;8.80;1.00;;;;;;5031811;28;20253;-76
2023/10/06 02:23:05;;;;;;;7.60;4.03;;;8.80;1.00;;;;;;5006412;28;20997;-75
2023/10/06 02:25:31;;;;;;;6.87;4.23;;;8.80;1.00;;;;;;5032141;28;20412;-76
2023/10/06 02:27:59;;;;;;;10.50;4.30;;;8.80;1.00;;;;;;5031586;28;20229;-76
2023/10/06 02:30:33;;;;;;;8.47;4.20;;;8.80;1.00;;;;;;5031882;28;20655;-75
2023/10/06 02:32:59;;;;;;;7.43;4.03;;;8.80;1.00;;;;;;5031687;28;20466;-76
2023/10/06 02:35:25;;;;;;;6.67;4.10;;;8.80;1.00;;;;;;5031524;28;20419;-75
2023/10/06 02:37:51;;;;;;;7.53;4.10;;;8.80;1.00;;;;;;5030151;28;20456;-75
2023/10/06 02:40:16;;;;;;;7.30;4.43;;;8.80;1.00;;;;;;5031939;28;20170;-75
2023/10/06 02:42:53;;;;;;;9.20;4.43;;;8.80;1.00;;;;;;5031545;28;20239;-73
2023/10/06 02:45:20;;;;;;;6.60;4.20;;;8.80;1.00;;;;;;5031743;28;20227;-75
2023/10/06 02:47:47;;;;;;;6.97;4.00;;;8.70;1.00;;;;;;5031442;28;20416;-76
2023/10/06 02:50:20;;;;;;;7.43;3.87;;;8.70;1.00;;;;;;5031718;28;20413;-76
2023/10/06 02:52:46;;;;;;;7.53;4.00;;;8.70;1.00;;;;;;5031455;28;20452;-76
2023/10/06 02:55:20;;;;;;;6.83;3.67;;;8.70;1.00;;;;;;5031177;28;20451;-77
2023/10/06 02:57:50;;;;;;;8.00;3.97;;;8.70;1.00;;;;;;5031389;28;20461;-74
2023/10/06 03:03:03;;;;;;;7.00;3.97;;;8.70;1.00;;;;;;5031278;28;20946;-76
2023/10/06 03:05:32;;;;;;;6.17;3.70;;;8.70;1.00;;;;;;5031288;28;20507;-76
2023/10/06 03:08:01;;;;;;;6.90;4.07;;;8.70;1.00;;;;;;5031298;28;20436;-75
2023/10/06 03:10:30;;;;;;;5.47;3.53;;;8.70;1.00;;;;;;5031323;28;20989;-76
2023/10/06 03:12:57;;;;;;;8.57;4.17;;;8.70;1.00;;;;;;5031349;28;20440;-75
2023/10/06 03:15:57;;;;;;;8.40;4.07;;;8.70;1.00;;;;;;5031079;28;20490;-75
2023/10/06 03:18:16;;;;;;;7.33;4.17;;;8.70;1.00;;;;;;5024076;28;20459;-77
2023/10/06 03:21:00;;;;;;;6.83;4.07;;;8.60;1.00;;;;;;5031332;28;21038;-76
2023/10/06 03:23:45;;;;;;;5.80;4.30;;;8.70;1.00;;;;;;5025344;28;20439;-77
2023/10/06 03:26:30;;;;;;;9.83;4.40;;;8.60;1.00;;;;;;5022911;28;20898;-76
2023/10/06 03:29:02;;;;;;;6.37;4.20;;;8.60;1.00;;;;;;5030627;28;20440;-76
2023/10/06 03:31:44;;;;;;;7.97;4.80;;;8.50;1.00;;;;;;5029585;28;20413;-77
2023/10/06 03:34:15;;;;;;;11.33;4.77;;;8.50;1.00;;;;;;5030377;28;20527;-77
2023/10/06 03:36:46;;;;;;;14.23;4.70;;;8.40;1.00;;;;;;5027018;28;20421;-76
2023/10/06 03:39:13;;;;;;;9.23;4.33;;;8.50;1.00;;;;;;5030316;28;20492;-76
2023/10/06 03:41:44;;;;;;;6.23;3.90;;;8.60;1.00;;;;;;5030518;28;20456;-75
2023/10/06 03:44:11;;;;;;;7.57;4.40;;;8.60;1.00;;;;;;5030594;28;20408;-75
2023/10/06 03:46:37;;;;;;;11.20;5.03;;;8.70;1.00;;;;;;5030413;28;20436;-76
2023/10/06 03:49:03;;;;;;;7.30;4.70;;;8.70;1.00;;;;;;5030490;28;20779;-76
2023/10/06 03:51:33;;;;;;;11.13;5.60;;;8.70;1.00;;;;;;5030225;28;20458;-75
2023/10/06 03:53:59;;;;;;;7.97;5.03;;;8.70;1.00;;;;;;5030587;28;20440;-75
2023/10/06 03:56:25;;;;;;;8.00;4.40;;;8.70;1.00;;;;;;5029787;28;20482;-76
2023/10/06 03:58:50;;;;;;;8.27;5.00;;;8.60;1.00;;;;;;5029474;28;20546;-75
2023/10/06 04:01:19;;;;;;;9.50;4.97;;;8.60;1.00;;;;;;5029275;28;20289;-75
2023/10/06 04:03:46;;;;;;;9.93;4.60;;;8.60;1.00;;;;;;5029853;28;20261;-76
2023/10/06 04:06:15;;;;;;;6.67;4.40;;;8.60;1.00;;;;;;5029266;28;20421;-75
2023/10/06 04:08:44;;;;;;;12.73;4.10;;;8.60;1.00;;;;;;5028465;28;20499;-76
2023/10/06 04:11:13;;;;;;;10.10;4.27;;;8.60;1.00;;;;;;5029671;28;20431;-75
2023/10/06 04:13:39;;;;;;;7.47;4.57;;;8.50;1.00;;;;;;5029636;28;20818;-75
2023/10/06 04:16:04;;;;;;;8.97;5.23;;;8.50;1.00;;;;;;5029193;28;20427;-75
2023/10/06 04:18:32;;;;;;;8.80;4.70;;;8.50;1.00;;;;;;5029277;28;20201;-77
2023/10/06 04:20:58;;;;;;;14.43;5.60;;;8.50;1.00;;;;;;5029207;28;20174;-76
2023/10/06 04:23:24;;;;;;;7.13;4.60;;;8.50;1.00;;;;;;5029557;28;20792;-75
2023/10/06 04:25:54;;;;;;;8.60;4.57;;;8.40;1.00;;;;;;5029288;28;20184;-75
2023/10/06 04:28:22;;;;;;;9.50;5.90;;;8.50;1.00;;;;;;5029060;28;20264;-77
2023/10/06 04:30:49;;;;;;;7.00;4.33;;;8.40;1.00;;;;;;5029316;28;20431;-75
2023/10/06 04:33:15;;;;;;;9.23;5.50;;;8.50;1.00;;;;;;5029326;28;20447;-76
2023/10/06 04:35:47;;;;;;;8.77;4.87;;;8.50;1.00;;;;;;5029043;28;20778;-75
2023/10/06 04:38:13;;;;;;;9.33;5.20;;;8.50;1.00;;;;;;5028976;28;20467;-75
2023/10/06 04:40:42;;;;;;;12.93;5.13;;;8.50;1.00;;;;;;5029362;28;20408;-75
2023/10/06 04:43:08;;;;;;;10.07;6.43;;;8.50;1.00;;;;;;5029071;28;20442;-75
2023/10/06 04:45:33;;;;;;;9.63;4.97;;;8.50;1.00;;;;;;5028998;28;20427;-75
2023/10/06 04:48:03;;;;;;;9.00;5.10;;;8.50;1.00;;;;;;5028995;28;20215;-77
2023/10/06 04:50:30;;;;;;;10.50;5.47;;;8.50;1.00;;;;;;5029578;28;20181;-75
2023/10/06 04:52:55;;;;;;;9.93;5.37;;;8.50;1.00;;;;;;5031425;28;20467;-77
2023/10/06 04:55:21;;;;;;;12.23;5.63;;;8.50;1.00;;;;;;5033368;28;20450;-75
2023/10/06 04:57:47;;;;;;;11.70;6.00;;;8.50;1.00;;;;;;5033053;28;20439;-75
2023/10/06 05:00:21;;;;;;;10.57;6.00;;;8.50;1.00;;;;;;5032600;28;20640;-75
2023/10/06 05:02:47;;;;;;;13.10;6.70;;;8.50;1.00;;;;;;5033169;28;20204;-76
2023/10/06 05:05:20;;;;;;;10.27;6.70;;;8.50;1.00;;;;;;5032973;28;20466;-76
2023/10/06 05:07:50;;;;;;;10.50;7.00;;;8.40;1.00;;;;;;5032888;28;20409;-76
2023/10/06 05:10:21;;;;;;;10.80;5.53;;;9.50;1.00;;;;;;5032687;28;20416;-76
2023/10/06 05:12:47;;;;;;;12.27;6.13;;;8.30;1.00;;;;;;5032784;28;20531;-77
2023/10/06 05:15:23;;;;;;;12.93;6.00;;;8.40;1.00;;;;;;5032515;28;20968;-75
2023/10/06 05:17:55;;;;;;;8.70;6.20;;;8.40;1.00;;;;;;5032697;28;20400;-75
2023/10/06 05:20:30;;;;;;;12.53;5.80;;;8.30;1.00;;;;;;5047811;28;20478;-75
2023/10/06 05:23:07;;;;;;;9.30;5.60;;;8.30;1.00;;;;;;5032749;28;20444;-76
2023/10/06 05:25:39;;;;;;;11.27;6.23;;;8.30;1.00;;;;;;5025929;28;20435;-75
2023/10/06 05:28:07;;;;;;;10.93;5.93;;;8.40;1.00;;;;;;5047522;28;20455;-75
2023/10/06 05:30:33;;;;;;;9.63;5.67;;;8.40;1.00;;;;;;5032509;28;20416;-74
2023/10/06 05:33:00;;;;;;;13.07;6.83;;;8.30;1.00;;;;;;5031794;28;20440;-73
2023/10/06 05:35:25;;;;;;;15.30;6.67;;;8.30;1.00;;;;;;5032274;28;20412;-77
2023/10/06 05:37:53;;;;;;;14.27;6.57;;;8.30;1.00;;;;;;5032202;28;20452;-75
2023/10/06 05:40:20;;;;;;;8.10;5.40;;;8.30;1.00;;;;;;5032511;28;20162;-76
2023/10/06 05:42:49;;;;;;;8.33;6.07;;;8.20;1.00;;;;;;5032417;28;20878;-78
2023/10/06 05:45:18;;;;;;;9.53;6.47;;;8.20;1.00;;;;;;5032265;28;20423;-75
2023/10/06 05:47:51;;;;;;;10.30;5.63;;;8.20;1.00;;;;;;5032189;28;20794;-77
2023/10/06 05:50:27;;;;;;;7.70;5.20;;;8.20;1.00;;;;;;5031607;28;20448;-76
2023/10/06 05:53:08;;;;;;;9.43;5.77;;;8.20;1.00;;;;;;5047161;28;20436;-75
2023/10/06 05:55:38;;;;;;;9.67;5.63;;;8.20;1.00;;;;;;5032080;28;20894;-76
2023/10/06 05:58:04;;;;;;;10.30;7.50;;;8.20;1.00;;;;;;5031673;28;20818;-75
2023/10/06 06:00:30;;;;;;;12.50;6.53;;;8.20;1.00;;;;;;5031806;28;20767;-75
2023/10/06 06:03:10;;;;;;;9.90;6.17;;;8.10;1.00;;;;;;5031357;28;20783;-75
2023/10/06 06:05:38;;;;;;;12.10;7.30;;;8.20;1.00;;;;;;5031849;28;20405;-76
2023/10/06 06:08:08;;;;;;;13.60;7.40;;;8.30;1.00;;;;;;5031718;28;20515;-75
2023/10/06 06:10:35;;;;;;;14.50;6.73;;;8.40;1.00;;;;;;5031789;28;20425;-75
2023/10/06 06:13:00;;;;;;;17.30;7.10;;;8.40;1.00;;;;;;5031672;28;20842;-78
2023/10/06 06:15:26;;;;;;;17.83;6.97;;;8.40;1.00;;;;;;5031580;28;20417;-76
2023/10/06 06:17:53;;;;;;;14.03;6.83;;;8.40;1.00;;;;;;5031608;28;20260;-75
2023/10/06 06:20:21;;;;;;;13.73;7.03;;;8.40;1.00;;;;;;5031544;28;20178;-76
2023/10/06 06:22:53;;;;;;;13.77;7.30;;;8.50;1.00;;;;;;5031290;28;20509;-77
2023/10/06 06:25:21;;;;;;;18.10;8.70;;;8.60;1.00;;;;;;5031814;28;20170;-74
2023/10/06 06:27:47;;;;;;;11.97;7.83;;;8.80;1.00;;;;;;5031562;28;20467;-74
2023/10/06 06:30:18;;;;;;;17.43;8.43;;;9.00;1.00;;;;;;5031321;28;20413;-76
2023/10/06 06:32:50;;;;;;;17.57;8.40;;;9.20;1.00;;;;;;5031750;28;20714;-74
2023/10/06 06:35:22;;;;;;;15.57;9.00;;;9.40;1.00;;;;;;5031281;28;20421;-75
2023/10/06 06:37:59;;;;;;;14.50;8.63;;;9.70;1.00;;;;;;5031505;28;20409;-74
2023/10/06 06:40:26;;;;;;;16.47;8.40;;;9.90;1.00;;;;;;5031257;28;20416;-75
2023/10/06 06:42:52;;;;;;;14.80;8.37;;;10.20;1.00;;;;;;5031504;28;20523;-74
2023/10/06 06:45:19;;;;;;;14.00;8.80;;;10.30;1.00;;;;;;5031104;28;20586;-74
2023/10/06 06:47:44;;;;;;;16.13;9.53;;;10.40;1.00;;;;;;5031616;28;20401;-74
2023/10/06 06:50:15;;;;;;;15.50;9.40;;;10.50;1.00;;;;;;5031158;28;20420;-74
2023/10/06 06:52:42;;;;;;;20.43;8.93;;;10.60;1.00;;;;;;5031331;28;20277;-75
2023/10/06 06:55:12;;;;;;;12.60;8.60;;;10.70;1.00;;;;;;5030929;28;20425;-74
2023/10/06 06:57:46;;;;;;;14.15;9.00;;;10.70;1.00;;;;;;5031257;28;20408;-74
2023/10/06 07:00:16;;;;;;;12.20;8.13;;;10.80;1.00;;;;;;5030852;28;20431;-74
2023/10/06 07:02:45;;;;;;;16.63;9.07;;;10.80;1.00;;;;;;5031094;28;20440;-74
2023/10/06 07:05:15;;;;;;;16.60;8.10;;;10.80;1.00;;;;;;5030595;28;20408;-72
2023/10/06 07:07:45;;;;;;;15.70;8.70;;;10.90;1.00;;;;;;5031025;28;20907;-74
2023/10/06 07:10:15;;;;;;;14.53;8.33;;;11.00;1.00;;;;;;5030508;28;20437;-74
2023/10/06 07:12:42;;;;;;;15.37;8.47;;;11.00;1.00;;;;;;5046410;28;21031;-75
2023/10/06 07:15:14;;;;;;;13.93;8.97;;;11.00;1.00;;;;;;5029726;28;20425;-73
2023/10/06 07:17:45;;;;;;;12.97;9.30;;;11.10;1.00;;;;;;5030638;28;20436;-77
2023/10/06 07:20:14;;;;;;;14.00;9.13;;;11.20;1.00;;;;;;5030529;28;20412;-75
2023/10/06 07:22:40;;;;;;;21.30;10.40;;;11.20;1.00;;;;;;5030855;28;20470;-75
2023/10/06 07:25:07;;;;;;;18.00;9.80;;;11.20;1.00;;;;;;5030532;28;20431;-74
2023/10/06 07:27:34;;;;;;;17.73;9.60;;;11.30;1.00;;;;;;5030566;28;20428;-74
2023/10/06 07:30:04;;;;;;;21.83;9.20;;;11.40;1.00;;;;;;5030397;28;20413;-74
2023/10/06 07:32:30;;;;;;;16.07;9.37;;;11.50;1.00;;;;;;5029998;28;20438;-74
2023/10/06 07:34:56;;;;;;;12.80;8.47;;;11.50;1.00;;;;;;5030286;28;20413;-74
2023/10/06 07:37:21;;;;;;;15.33;9.40;;;11.60;1.00;;;;;;5030340;28;20956;-75
2023/10/06 07:39:47;;;;;;;16.83;7.70;;;11.70;1.00;;;;;;5030101;28;20604;-76
2023/10/06 07:42:16;;;;;;;14.67;7.73;;;11.90;1.00;;;;;;5030192;28;20228;-74
2023/10/06 07:44:42;;;;;;;15.20;8.20;;;12.00;1.00;;;;;;5030644;28;20510;-74
2023/10/06 07:47:08;;;;;;;16.73;8.70;;;12.10;1.00;;;;;;5030308;28;20412;-74
2023/10/06 07:49:34;;;;;;;12.80;8.20;;;12.20;1.00;;;;;;5030409;28;20818;-74
2023/10/06 07:52:00;;;;;;;12.33;7.33;;;12.30;1.00;;;;;;5030163;28;20698;-74
2023/10/06 07:54:26;;;;;;;15.33;7.93;;;12.50;1.00;;;;;;5029932;28;20416;-76
2023/10/06 07:56:52;;;;;;;15.93;8.00;;;12.60;1.00;;;;;;5030088;28;20193;-75
2023/10/06 07:59:17;;;;;;;23.93;8.87;;;12.70;1.00;;;;;;5029558;28;20489;-73
2023/10/06 08:01:43;;;;;;;15.70;7.90;;;12.90;1.00;;;;;;5029710;28;20202;-74
2023/10/06 08:04:09;;;;;;;15.27;7.77;;;13.10;1.00;;;;;;5030247;28;20540;-74
2023/10/06 08:06:35;;;;;;;18.80;9.30;;;13.20;1.00;;;;;;5029468;28;20173;-73
2023/10/06 08:09:05;;;;;;;18.67;8.87;;;13.40;1.00;;;;;;5029916;28;20213;-76
2023/10/06 08:11:32;;;;;;;19.43;8.10;;;13.60;1.00;;;;;;5029543;28;20435;-75
2023/10/06 08:13:58;;;;;;;14.37;7.73;;;13.60;1.00;;;;;;5029694;28;20504;-74
2023/10/06 08:16:26;;;;;;;16.43;7.97;;;13.70;1.00;;;;;;5029285;28;20499;-74
2023/10/06 08:18:53;;;;;;;14.73;7.90;;;13.90;1.00;;;;;;5029655;28;20201;-74
2023/10/06 08:21:20;;;;;;;16.20;7.50;;;14.30;1.00;;;;;;5029462;28;20467;-74
2023/10/06 08:23:46;;;;;;;16.93;7.67;;;14.30;1.00;;;;;;5030509;28;20401;-74
2023/10/06 08:26:13;;;;;;;15.23;6.47;;;14.60;1.00;;;;;;5028979;28;20440;-74
2023/10/06 08:28:40;;;;;;;13.83;7.20;;;14.90;1.00;;;;;;5020193;28;20324;-74
2023/10/06 08:31:16;;;;;;;12.53;7.20;;;16.30;1.00;;;;;;5029552;28;20415;-74
2023/10/06 08:33:41;;;;;;;15.60;8.40;;;17.70;1.00;;;;;;5022010;28;20423;-76
2023/10/06 08:36:10;;;;;;;18.47;9.10;;;18.50;1.00;;;;;;5029233;28;20848;-74
2023/10/06 08:38:36;;;;;;;16.17;9.00;;;19.20;1.00;;;;;;5029085;28;20532;-74
2023/10/06 08:41:03;;;;;;;16.93;9.13;;;19.80;1.00;;;;;;5029349;28;20404;-74
2023/10/06 08:43:28;;;;;;;18.77;9.60;;;20.60;1.00;;;;;;5029336;28;20289;-75
2023/10/06 08:45:59;;;;;;;16.93;8.73;;;20.90;1.00;;;;;;5029641;28;20419;-75
2023/10/06 08:48:30;;;;;;;17.33;8.53;;;21.60;1.00;;;;;;5029418;28;20183;-74
2023/10/06 08:50:58;;;;;;;16.30;8.90;;;22.10;1.00;;;;;;5029584;28;20470;-74
2023/10/06 08:53:26;;;;;;;17.43;9.30;;;22.90;1.00;;;;;;5028888;28;21031;-75
2023/10/06 08:55:52;;;;;;;18.27;9.80;;;23.50;1.00;;;;;;5029335;28;20416;-74
2023/10/06 08:58:18;;;;;;;16.50;9.47;;;23.10;1.00;;;;;;5028911;28;20603;-75
2023/10/06 09:00:44;;;;;;;13.47;9.03;;;23.50;1.00;;;;;;5029252;28;20644;-74
2023/10/06 09:03:14;;;;;;;14.40;8.73;;;24.10;1.00;;;;;;5029593;28;20193;-74
2023/10/06 09:05:41;;;;;;;15.27;9.30;;;24.80;1.00;;;;;;5029195;28;20176;-74
2023/10/06 09:08:09;;;;;;;14.33;9.50;;;25.60;1.00;;;;;;5028953;28;20408;-74
2023/10/06 09:10:40;;;;;;;13.93;8.80;;;26.00;1.00;;;;;;5029038;28;20185;-75
2023/10/06 09:13:11;;;;;;;13.90;8.90;;;26.10;1.00;;;;;;5029305;28;20196;-76
2023/10/06 09:15:37;;;;;;;14.53;9.30;;;26.00;1.00;;;;;;5029066;28;20177;-76
2023/10/06 09:18:21;;;;;;;14.10;9.00;;;25.10;1.00;;;;;;5028995;28;20225;-75
2023/10/06 09:20:48;;;;;;;13.37;8.20;;;25.40;1.00;;;;;;5021414;28;20166;-74
2023/10/06 09:23:43;;;;;;;13.40;9.03;;;26.10;1.00;;;;;;5029056;28;20212;-76
2023/10/06 09:26:11;;;;;;;14.63;8.63;;;26.80;1.00;;;;;;5024341;28;20655;-74
2023/10/06 09:28:55;;;;;;;13.33;8.53;;;26.00;1.00;;;;;;5028828;28;20207;-74
2023/10/06 09:31:34;;;;;;;19.13;9.30;;;26.30;1.00;;;;;;5025555;28;20178;-74
2023/10/06 09:34:00;;;;;;;14.27;9.03;;;26.20;1.00;;;;;;5029032;28;20256;-74
2023/10/06 09:36:33;;;;;;;12.50;8.50;;;26.30;1.00;;;;;;5028576;28;20264;-74
2023/10/06 09:39:03;;;;;;;13.97;8.57;;;27.30;1.00;;;;;;5030823;28;20359;-73
2023/10/06 09:41:30;;;;;;;15.87;8.83;;;28.60;1.00;;;;;;5031933;28;20180;-74
2023/10/06 09:44:04;;;;;;;15.02;8.30;;;28.60;1.00;;;;;;5032587;28;20190;-74
2023/10/06 09:46:34;;;;;;;16.55;7.97;;;28.60;1.00;;;;;;5032261;28;20243;-75
2023/10/06 09:49:05;;;;;;;15.63;8.55;;;28.70;1.00;;;;;;5032395;28;20192;-75
2023/10/06 09:51:32;;;;;;;16.73;8.43;;;28.70;1.00;;;;;;5031724;28;20209;-74
2023/10/06 09:53:58;;;;;;;12.38;7.63;;;28.70;1.00;;;;;;5032012;28;20181;-75
2023/10/06 09:56:24;;;;;;;13.82;7.82;;;28.80;1.00;;;;;;5032633;28;20230;-75
2023/10/06 09:58:51;;;;;;;18.42;9.35;;;29.30;1.00;;;;;;5032810;28;20212;-74
2023/10/06 10:01:17;;;;;;;17.80;8.20;;;29.80;1.00;;;;;;5032580;28;20169;-75
2023/10/06 10:03:42;;;;;;;10.77;7.90;;;30.80;1.00;;;;;;5032356;28;20248;-75
2023/10/06 10:06:09;;;;;;;14.15;7.72;;;30.80;1.00;;;;;;5032530;28;20299;-75
2023/10/06 10:08:37;;;;;;;12.52;7.38;;;31.50;1.00;;;;;;5032061;28;20200;-74
2023/10/06 10:11:14;;;;;;;15.82;7.82;;;31.70;1.00;;;;;;5032605;28;20268;-75
2023/10/06 10:13:57;;;;;;;15.15;8.35;;;30.80;1.00;;;;;;5032326;28;20567;-75
2023/10/06 10:16:56;;;;;;;13.75;8.15;;;30.00;1.00;;;;;;5032164;28;20263;-72
2023/10/06 10:19:23;;;;;;;13.68;8.27;;;29.30;1.00;;;;;;5032244;28;20200;-75
2023/10/06 10:21:49;;;;;;;13.00;7.53;;;28.90;1.00;;;;;;5024295;28;20189;-75
2023/10/06 10:24:19;;;;;;;12.75;8.60;;;28.80;1.00;;;;;;5032302;28;20256;-75
2023/10/06 10:26:52;;;;;;;12.75;8.02;;;28.60;1.00;;;;;;5031746;28;20177;-76
2023/10/06 10:29:18;;;;;;;12.00;7.95;;;29.30;1.00;;;;;;5032155;28;20209;-74
2023/10/06 10:31:46;;;;;;;14.25;8.10;;;30.10;1.00;;;;;;5031461;28;20494;-75
2023/10/06 10:34:25;;;;;;;13.68;8.07;;;30.20;1.00;;;;;;5032029;28;20185;-74
2023/10/06 10:37:08;;;;;;;13.45;8.05;;;30.40;1.00;;;;;;5032065;28;20247;-75
2023/10/06 10:39:45;;;;;;;13.75;8.27;;;30.30;1.00;;;;;;5031644;28;20683;-75
2023/10/06 10:42:12;;;;;;;17.70;8.50;;;31.10;1.00;;;;;;5032200;28;20206;-75
2023/10/06 10:44:39;;;;;;;11.68;7.55;;;32.10;1.00;;;;;;5031777;28;20165;-75
2023/10/06 10:47:06;;;;;;;11.45;7.40;;;31.90;1.00;;;;;;5031786;28;20551;-75
2023/10/06 10:49:32;;;;;;;14.80;7.20;;;32.40;1.00;;;;;;5031512;28;20173;-76
2023/10/06 10:52:05;;;;;;;13.75;7.60;;;32.90;1.00;;;;;;5031692;28;20200;-75
2023/10/06 10:54:36;;;;;;;10.15;7.05;;;33.60;1.00;;;;;;5030383;28;20193;-74
2023/10/06 10:57:17;;;;;;;15.45;7.68;;;34.00;1.00;;;;;;5031800;28;20174;-74
2023/10/06 11:00:23;;;;;;;13.52;7.95;;;33.70;1.00;;;;;;5031248;28;20223;-75
2023/10/06 11:02:46;;;;;;;14.20;7.35;;;33.50;1.00;;;;;;5030797;28;20209;-77
2023/10/06 11:05:12;;;;;;;11.43;7.03;;;33.50;1.00;;;;;;5031423;28;20191;-74
2023/10/06 11:07:39;;;;;;;16.50;7.30;;;34.00;1.00;;;;;;5031274;28;20169;-75
2023/10/06 11:10:05;;;;;;;10.00;6.78;;;34.40;1.00;;;;;;5031417;28;20181;-74
2023/10/06 11:12:34;;;;;;;13.85;6.88;;;34.90;1.00;;;;;;5031110;28;20563;-74
2023/10/06 11:15:03;;;;;;;9.20;6.20;;;34.90;1.00;;;;;;5031285;28;20204;-75
2023/10/06 11:17:31;;;;;;;15.40;6.78;;;35.70;1.00;;;;;;5030926;28;20208;-75
2023/10/06 11:20:00;;;;;;;11.98;6.57;;;34.90;1.00;;;;;;5030884;28;20215;-77
2023/10/06 11:22:27;;;;;;;12.40;5.63;;;34.50;1.00;;;;;;5031420;28;20284;-75
2023/10/06 11:24:57;;;;;;;9.43;5.78;;;34.60;1.00;;;;;;5031008;28;20239;-76
2023/10/06 11:27:23;;;;;;;10.63;5.70;;;34.30;1.00;;;;;;5046317;28;20537;-74
2023/10/06 11:29:54;;;;;;;10.77;5.38;;;34.50;1.00;;;;;;5030511;28;21862;-75
2023/10/06 11:32:21;;;;;;;8.82;4.90;;;34.90;1.00;;;;;;5031200;28;20284;-76
2023/10/06 11:34:51;;;;;;;8.75;4.78;;;35.40;1.00;;;;;;5030735;28;20401;-75
2023/10/06 11:37:18;;;;;;;10.38;5.47;;;36.50;1.00;;;;;;5031014;28;20184;-76
2023/10/06 11:39:45;;;;;;;9.20;5.22;;;37.90;1.00;;;;;;5030999;28;20247;-76
2023/10/06 11:42:30;;;;;;;12.07;4.97;;;36.80;1.00;;;;;;5030823;28;20197;-76
2023/10/06 11:45:00;;;;;;;12.95;5.32;;;36.70;1.00;;;;;;5045982;28;20174;-76
2023/10/06 11:47:26;;;;;;;12.10;5.32;;;36.70;1.00;;;;;;5030407;28;20170;-76
2023/10/06 11:49:59;;;;;;;10.10;5.30;;;35.90;1.00;;;;;;5030355;28;20180;-75
2023/10/06 11:52:26;;;;;;;9.27;4.63;;;37.00;1.00;;;;;;5030622;28;20185;-75
2023/10/06 11:54:52;;;;;;;9.27;4.95;;;37.10;1.00;;;;;;5045332;28;20332;-76
2023/10/06 11:57:19;;;;;;;12.32;4.70;;;36.80;1.00;;;;;;5030466;28;20206;-75
2023/10/06 11:59:53;;;;;;;8.43;4.25;;;36.60;1.00;;;;;;5029821;28;20201;-76
2023/10/06 12:02:21;;;;;;;11.07;4.50;;;36.40;1.00;;;;;;5029950;28;20193;-75
2023/10/06 12:04:47;;;;;;;8.27;4.53;;;36.70;1.00;;;;;;5028679;28;20635;-76
2023/10/06 12:07:23;;;;;;;9.52;4.28;;;36.90;1.00;;;;;;5030190;28;20264;-75
2023/10/06 12:09:49;;;;;;;7.70;3.80;;;36.60;1.00;;;;;;5028799;28;20181;-75
2023/10/06 12:12:18;;;;;;;8.25;4.20;;;36.90;1.00;;;;;;5030267;28;20707;-75
2023/10/06 12:14:46;;;;;;;9.02;4.15;;;37.00;1.00;;;;;;5030105;28;20174;-75
2023/10/06 12:17:14;;;;;;;12.65;4.18;;;36.60;1.00;;;;;;5030319;28;20497;-75
2023/10/06 12:19:42;;;;;;;9.10;3.78;;;36.60;1.00;;;;;;5045237;28;20298;-76
2023/10/06 12:22:08;;;;;;;7.32;4.10;;;36.10;1.00;;;;;;5030176;28;20765;-74
2023/10/06 12:24:33;;;;;;;15.70;3.80;;;35.90;1.00;;;;;;5045418;28;20196;-75
2023/10/06 12:26:59;;;;;;;7.03;3.85;;;35.90;1.00;;;;;;5044868;28;20660;-75
2023/10/06 12:29:24;;;;;;;7.07;4.03;;;34.90;1.00;;;;;;5029983;28;20180;-76
2023/10/06 12:31:50;;;;;;;7.75;4.05;;;35.50;1.00;;;;;;5029516;28;20201;-75
2023/10/06 12:34:15;;;;;;;7.05;3.92;;;35.90;1.00;;;;;;5030039;28;20183;-75
2023/10/06 12:36:48;;;;;;;11.95;4.15;;;36.40;1.00;;;;;;5027251;28;20181;-75
2023/10/06 12:39:30;;;;;;;11.13;3.83;;;35.90;1.00;;;;;;5030030;28;20200;-76
2023/10/06 12:41:57;;;;;;;6.78;3.97;;;35.90;1.00;;;;;;5029881;28;20331;-75
2023/10/06 12:44:23;;;;;;;6.63;3.70;;;35.70;1.00;;;;;;5030151;28;20169;-74
2023/10/06 12:46:48;;;;;;;8.52;4.25;;;34.70;1.00;;;;;;5030170;28;20252;-73
2023/10/06 12:49:18;;;;;;;10.13;4.18;;;33.80;1.00;;;;;;5029860;28;20648;-75
2023/10/06 12:51:44;;;;;;;8.00;4.20;;;33.00;1.00;;;;;;5029825;28;20271;-75
2023/10/06 12:54:09;;;;;;;10.98;4.30;;;33.10;1.00;;;;;;5030065;28;20727;-75
2023/10/06 12:56:35;;;;;;;7.22;4.00;;;32.90;1.00;;;;;;5029750;28;20181;-74
2023/10/06 12:59:01;;;;;;;7.50;4.15;;;32.60;1.00;;;;;;5029434;28;20204;-74
2023/10/06 13:01:30;;;;;;;7.90;3.75;;;32.40;1.00;;;;;;5029486;28;20185;-75
2023/10/06 13:03:56;;;;;;;8.88;3.92;;;32.50;1.00;;;;;;5029552;28;20176;-76
2023/10/06 13:06:22;;;;;;;6.60;3.38;;;32.50;1.00;;;;;;5029825;28;20253;-74
2023/10/06 13:08:49;;;;;;;7.65;4.28;;;32.10;1.00;;;;;;5029760;28;20176;-75
2023/10/06 13:11:18;;;;;;;8.50;3.92;;;31.60;1.00;;;;;;5029825;28;20178;-74
2023/10/06 13:13:49;;;;;;;7.95;3.85;;;30.60;1.00;;;;;;5031693;28;20671;-75